createdAt,value
2024-02-14T00:00:45.998Z,2.76
2024-02-14T00:01:45.940Z,2.71
2024-02-14T00:02:46.012Z,2.69
2024-02-14T00:03:45.919Z,2.68
2024-02-14T00:04:45.917Z,2.69
2024-02-14T00:05:45.925Z,2.68
2024-02-14T00:06:45.886Z,2.66
2024-02-14T00:07:45.838Z,2.68
2024-02-14T00:08:45.881Z,2.65
2024-02-14T00:09:45.824Z,2.62
2024-02-14T00:10:45.800Z,2.63
2024-02-14T00:11:45.828Z,2.62
2024-02-14T00:12:45.833Z,2.63
2024-02-14T00:13:45.773Z,2.63
2024-02-14T00:14:45.782Z,2.63
2024-02-14T00:15:45.743Z,2.65
2024-02-14T00:16:45.754Z,2.66
2024-02-14T00:17:45.811Z,2.66
2024-02-14T00:18:45.823Z,2.63
2024-02-14T00:19:45.792Z,2.65
2024-02-14T00:20:45.724Z,2.66
2024-02-14T00:21:45.685Z,2.68
2024-02-14T00:22:45.672Z,2.69
2024-02-14T00:23:45.720Z,2.69
2024-02-14T00:24:45.655Z,2.73
2024-02-14T00:25:45.641Z,2.77
2024-02-14T00:26:45.666Z,2.76
2024-02-14T00:27:45.645Z,2.77
2024-02-14T00:28:45.617Z,2.77
2024-02-14T00:29:45.645Z,2.79
2024-02-14T00:30:45.603Z,2.81
2024-02-14T00:31:45.658Z,2.80
2024-02-14T00:32:45.774Z,2.79
2024-02-14T00:33:45.844Z,2.79
2024-02-14T00:34:45.774Z,2.81
2024-02-14T00:35:45.567Z,2.80
2024-02-14T00:36:45.531Z,2.80
2024-02-14T00:37:45.550Z,2.83
2024-02-14T00:38:45.531Z,2.83
2024-02-14T00:39:45.493Z,2.83
2024-02-14T00:40:45.513Z,2.86
2024-02-14T00:41:45.508Z,2.86
2024-02-14T00:42:45.456Z,2.84
2024-02-14T00:43:45.442Z,2.81
2024-02-14T00:44:45.558Z,2.80
2024-02-14T00:45:45.434Z,2.81
2024-02-14T00:46:45.413Z,2.83
2024-02-14T00:47:45.526Z,2.83
2024-02-14T00:48:45.561Z,2.84
2024-02-14T00:49:45.509Z,2.86
2024-02-14T00:50:45.397Z,2.86
2024-02-14T00:51:45.360Z,2.87
2024-02-14T00:52:45.367Z,2.87
2024-02-14T00:53:45.411Z,2.86
2024-02-14T00:54:45.329Z,2.87
2024-02-14T00:55:45.312Z,2.89
2024-02-14T00:56:45.305Z,2.90
2024-02-14T00:57:45.308Z,2.92
2024-02-14T00:58:45.276Z,2.92
2024-02-14T00:59:45.281Z,2.94
2024-02-14T01:00:45.270Z,2.92
2024-02-14T01:01:45.253Z,2.92
2024-02-14T01:02:45.288Z,2.94
2024-02-14T01:03:45.288Z,2.92
2024-02-14T01:04:45.244Z,2.94
2024-02-14T01:05:45.246Z,2.92
2024-02-14T01:06:45.286Z,2.94
2024-02-14T01:07:45.175Z,2.94
2024-02-14T01:08:45.363Z,2.92
2024-02-14T01:09:45.158Z,2.94
2024-02-14T01:10:45.137Z,2.94
2024-02-14T01:11:45.166Z,2.94
2024-02-14T01:12:45.156Z,2.94
2024-02-14T01:13:45.125Z,2.92
2024-02-14T01:14:45.150Z,2.90
2024-02-14T01:15:45.085Z,2.89
2024-02-14T01:16:45.076Z,2.89
2024-02-14T01:17:45.173Z,2.87
2024-02-14T01:18:45.190Z,2.87
2024-02-14T01:19:45.122Z,2.84
2024-02-14T01:20:45.100Z,2.86
2024-02-14T01:21:45.023Z,2.84
2024-02-14T01:22:45.009Z,2.86
2024-02-14T01:23:45.070Z,2.84
2024-02-14T01:24:44.990Z,2.84
2024-02-14T01:25:44.997Z,2.81
2024-02-14T01:26:45.001Z,2.80
2024-02-14T01:27:44.956Z,2.80
2024-02-14T01:28:44.941Z,2.79
2024-02-14T01:29:44.995Z,2.76
2024-02-14T01:30:44.937Z,2.74
2024-02-14T01:31:44.912Z,2.73
2024-02-14T01:32:44.971Z,2.69
2024-02-14T01:33:45.175Z,2.68
2024-02-14T01:34:44.914Z,2.69
2024-02-14T01:35:44.894Z,2.68
2024-02-14T01:36:44.921Z,2.65
2024-02-14T01:37:44.872Z,2.63
2024-02-14T01:38:44.912Z,2.62
2024-02-14T01:39:44.830Z,2.62
2024-02-14T01:40:44.821Z,2.61
2024-02-14T01:41:44.843Z,2.59
2024-02-14T01:42:44.782Z,2.58
2024-02-14T01:43:45.749Z,2.58
2024-02-14T01:44:44.856Z,2.55
2024-02-14T01:45:44.783Z,2.55
2024-02-14T01:46:44.778Z,2.51
2024-02-14T01:47:44.790Z,2.50
2024-02-14T01:48:44.911Z,2.47
2024-02-14T01:49:44.753Z,2.45
2024-02-14T01:50:44.733Z,2.43
2024-02-14T01:51:44.701Z,2.44
2024-02-14T01:52:44.690Z,2.43
2024-02-14T01:53:44.714Z,2.41
2024-02-14T01:54:44.690Z,2.40
2024-02-14T01:55:44.658Z,2.37
2024-02-14T01:56:44.650Z,2.36
2024-02-14T01:57:44.629Z,2.36
2024-02-14T01:58:44.673Z,2.33
2024-02-14T01:59:44.640Z,2.30
2024-02-14T02:00:44.665Z,2.30
2024-02-14T02:01:44.591Z,2.30
2024-02-14T02:02:44.603Z,2.29
2024-02-14T02:03:44.625Z,2.27
2024-02-14T02:04:44.546Z,2.25
2024-02-14T02:05:44.595Z,2.19
2024-02-14T02:06:44.536Z,2.14
2024-02-14T02:07:44.523Z,2.08
2024-02-14T02:08:44.575Z,2.04
2024-02-14T02:09:44.514Z,2.04
2024-02-14T02:10:44.525Z,2.04
2024-02-14T02:11:44.540Z,2.02
2024-02-14T02:12:44.482Z,2.04
2024-02-14T02:13:44.455Z,2.02
2024-02-14T02:14:44.487Z,2.04
2024-02-14T02:15:44.429Z,2.02
2024-02-14T02:16:44.418Z,2.04
2024-02-14T02:17:44.438Z,2.04
2024-02-14T02:18:44.601Z,2.02
2024-02-14T02:19:44.481Z,2.04
2024-02-14T02:20:44.719Z,2.02
2024-02-14T02:21:44.371Z,2.01
2024-02-14T02:22:44.361Z,2.01
2024-02-14T02:23:44.404Z,2.01
2024-02-14T02:24:44.320Z,2.01
2024-02-14T02:25:44.331Z,1.95
2024-02-14T02:26:44.319Z,1.95
2024-02-14T02:27:44.349Z,1.95
2024-02-14T02:28:44.404Z,1.93
2024-02-14T02:29:44.294Z,1.93
2024-02-14T02:30:44.266Z,1.93
2024-02-14T02:31:44.267Z,1.92
2024-02-14T02:32:44.398Z,1.89
2024-02-14T02:33:44.401Z,1.86
2024-02-14T02:34:44.236Z,1.85
2024-02-14T02:35:44.227Z,1.81
2024-02-14T02:36:44.225Z,1.77
2024-02-14T02:37:44.203Z,1.77
2024-02-14T02:38:44.307Z,1.72
2024-02-14T02:39:44.165Z,1.71
2024-02-14T02:40:44.150Z,1.71
2024-02-14T02:41:44.210Z,1.71
2024-02-14T02:42:44.145Z,1.71
2024-02-14T02:43:44.148Z,1.70
2024-02-14T02:44:44.160Z,1.70
2024-02-14T02:45:44.096Z,1.67
2024-02-14T02:46:44.086Z,1.67
2024-02-14T02:47:44.122Z,1.67
2024-02-14T02:48:44.223Z,1.65
2024-02-14T02:49:44.076Z,1.67
2024-02-14T02:50:44.084Z,1.64
2024-02-14T02:51:44.052Z,1.64
2024-02-14T02:52:44.035Z,1.64
2024-02-14T02:53:44.024Z,1.63
2024-02-14T02:54:44.057Z,1.61
2024-02-14T02:55:43.989Z,1.57
2024-02-14T02:56:44.029Z,1.57
2024-02-14T02:57:43.977Z,1.56
2024-02-14T02:58:44.065Z,1.54
2024-02-14T02:59:44.127Z,1.50
2024-02-14T03:00:43.949Z,1.52
2024-02-14T03:01:43.925Z,1.49
2024-02-14T03:02:43.980Z,1.47
2024-02-14T03:03:44.008Z,1.47
2024-02-14T03:04:51.830Z,1.44
2024-02-14T03:05:43.933Z,1.43
2024-02-14T03:06:43.882Z,1.44
2024-02-14T03:07:43.881Z,1.38
2024-02-14T03:08:43.939Z,1.39
2024-02-14T03:09:43.864Z,1.39
2024-02-14T03:10:43.819Z,1.43
2024-02-14T03:11:43.846Z,1.39
2024-02-14T03:12:43.825Z,1.39
2024-02-14T03:13:43.791Z,1.42
2024-02-14T03:14:43.820Z,1.42
2024-02-14T03:15:43.776Z,1.43
2024-02-14T03:16:43.775Z,1.43
2024-02-14T03:17:43.921Z,1.44
2024-02-14T03:18:43.899Z,1.44
2024-02-14T03:19:43.794Z,1.43
2024-02-14T03:20:43.769Z,1.44
2024-02-14T03:21:43.701Z,1.44
2024-02-14T03:22:43.707Z,1.44
2024-02-14T03:23:43.711Z,1.46
2024-02-14T03:24:43.682Z,1.47
2024-02-14T03:25:43.647Z,1.49
2024-02-14T03:26:43.668Z,1.50
2024-02-14T03:27:43.648Z,1.52
2024-02-14T03:28:43.657Z,1.52
2024-02-14T03:29:43.644Z,1.54
2024-02-14T03:30:43.661Z,1.57
2024-02-14T03:31:43.589Z,1.57
2024-02-14T03:32:43.718Z,1.57
2024-02-14T03:33:43.764Z,1.57
2024-02-14T03:34:43.567Z,1.61
2024-02-14T03:35:43.637Z,1.60
2024-02-14T03:36:43.541Z,1.61
2024-02-14T03:37:43.540Z,1.61
2024-02-14T03:38:43.691Z,1.63
2024-02-14T03:39:43.545Z,1.63
2024-02-14T03:40:43.542Z,1.63
2024-02-14T03:41:43.516Z,1.64
2024-02-14T03:42:43.481Z,1.64
2024-02-14T03:43:43.476Z,1.64
2024-02-14T03:44:43.477Z,1.65
2024-02-14T03:45:43.499Z,1.63
2024-02-14T03:46:43.423Z,1.56
2024-02-14T03:47:43.634Z,1.44
2024-02-14T03:48:43.602Z,1.38
2024-02-14T03:49:43.457Z,1.35
2024-02-14T03:50:43.406Z,1.35
2024-02-14T03:51:43.391Z,1.36
2024-02-14T03:52:43.362Z,1.34
2024-02-14T03:53:43.451Z,1.34
2024-02-14T03:54:43.346Z,1.31
2024-02-14T03:55:43.323Z,1.26
2024-02-14T03:56:43.366Z,1.24
2024-02-14T03:57:43.465Z,1.24
2024-02-14T03:58:43.308Z,1.26
2024-02-14T03:59:43.306Z,1.25
2024-02-14T04:00:43.293Z,1.25
2024-02-14T04:01:43.267Z,1.25
2024-02-14T04:02:43.285Z,1.25
2024-02-14T04:03:43.285Z,1.28
2024-02-14T04:04:43.247Z,1.29
2024-02-14T04:05:43.337Z,1.29
2024-02-14T04:06:43.280Z,1.31
2024-02-14T04:07:43.222Z,1.32
2024-02-14T04:08:43.286Z,1.34
2024-02-14T04:09:43.262Z,1.35
2024-02-14T04:10:43.168Z,1.35
2024-02-14T04:11:43.204Z,1.36
2024-02-14T04:12:43.147Z,1.38
2024-02-14T04:13:43.137Z,1.39
2024-02-14T04:14:43.162Z,1.42
2024-02-14T04:15:43.124Z,1.39
2024-02-14T04:16:43.109Z,1.43
2024-02-14T04:17:43.182Z,1.44
2024-02-14T04:18:43.202Z,1.46
2024-02-14T04:19:43.139Z,1.49
2024-02-14T04:20:43.106Z,1.49
2024-02-14T04:21:43.222Z,1.52
2024-02-14T04:22:43.037Z,1.50
2024-02-14T04:23:43.094Z,1.52
2024-02-14T04:24:43.015Z,1.52
2024-02-14T04:25:42.997Z,1.54
2024-02-14T04:26:43.071Z,1.56
2024-02-14T04:27:42.982Z,1.56
2024-02-14T04:28:42.976Z,1.57
2024-02-14T04:29:43.053Z,1.60
2024-02-14T04:30:43.110Z,1.60
2024-02-14T04:31:42.952Z,1.61
2024-02-14T04:32:43.138Z,1.61
2024-02-14T04:33:43.078Z,1.63
2024-02-14T04:34:43.152Z,1.64
2024-02-14T04:35:42.994Z,1.65
2024-02-14T04:36:42.881Z,1.67
2024-02-14T04:37:42.879Z,1.67
2024-02-14T04:38:42.911Z,1.70
2024-02-14T04:39:42.870Z,1.68
2024-02-14T04:40:42.853Z,1.70
2024-02-14T04:41:53.898Z,1.70
2024-02-14T04:42:42.843Z,1.72
2024-02-14T04:43:42.794Z,1.74
2024-02-14T04:44:42.826Z,1.75
2024-02-14T04:45:42.782Z,1.77
2024-02-14T04:46:42.773Z,1.77
2024-02-14T04:47:42.946Z,1.77
2024-02-14T04:48:42.828Z,1.77
2024-02-14T04:49:42.760Z,1.75
2024-02-14T04:50:42.768Z,1.74
2024-02-14T04:51:42.705Z,1.77
2024-02-14T04:52:42.697Z,1.79
2024-02-14T04:53:42.740Z,1.81
2024-02-14T04:54:42.674Z,1.82
2024-02-14T04:55:42.668Z,1.85
2024-02-14T04:56:42.673Z,1.85
2024-02-14T04:57:42.655Z,1.88
2024-02-14T04:58:42.631Z,1.89
2024-02-14T04:59:42.700Z,1.90
2024-02-14T05:00:42.684Z,1.95
2024-02-14T05:01:42.595Z,1.95
2024-02-14T05:02:42.608Z,1.98
2024-02-14T05:03:42.615Z,2.01
2024-02-14T05:04:42.568Z,2.00
2024-02-14T05:05:42.632Z,2.00
2024-02-14T05:06:42.719Z,2.00
2024-02-14T05:07:42.556Z,2.01
2024-02-14T05:08:42.568Z,2.04
2024-02-14T05:09:42.507Z,2.02
2024-02-14T05:10:42.527Z,2.04
2024-02-14T05:11:42.524Z,2.05
2024-02-14T05:12:42.501Z,2.07
2024-02-14T05:13:42.498Z,2.08
2024-02-14T05:14:42.503Z,2.09
2024-02-14T05:15:42.446Z,2.11
2024-02-14T05:16:42.448Z,2.11
2024-02-14T05:17:42.496Z,2.12
2024-02-14T05:18:42.572Z,2.12
2024-02-14T05:19:42.462Z,2.12
2024-02-14T05:20:42.398Z,2.05
2024-02-14T05:21:42.417Z,2.00
2024-02-14T05:22:42.378Z,2.01
2024-02-14T05:23:44.066Z,2.00
2024-02-14T05:24:42.361Z,2.05
2024-02-14T05:25:42.376Z,2.08
2024-02-14T05:26:42.364Z,2.09
2024-02-14T05:27:42.316Z,2.12
2024-02-14T05:28:42.310Z,2.12
2024-02-14T05:29:42.326Z,2.12
2024-02-14T05:30:42.296Z,2.11
2024-02-14T05:31:42.276Z,2.11
2024-02-14T05:32:42.340Z,2.11
2024-02-14T05:33:42.357Z,2.12
2024-02-14T05:34:42.308Z,2.11
2024-02-14T05:35:42.310Z,2.08
2024-02-14T05:36:42.211Z,2.07
2024-02-14T05:37:42.212Z,2.05
2024-02-14T05:38:42.220Z,2.08
2024-02-14T05:39:42.180Z,2.08
2024-02-14T05:40:42.191Z,2.11
2024-02-14T05:41:42.194Z,2.14
2024-02-14T05:42:42.618Z,2.15
2024-02-14T05:43:42.141Z,2.18
2024-02-14T05:44:42.189Z,2.20
2024-02-14T05:45:42.130Z,2.22
2024-02-14T05:46:42.112Z,2.23
2024-02-14T05:47:42.259Z,2.19
2024-02-14T05:48:43.209Z,2.20
2024-02-14T05:49:42.242Z,2.19
2024-02-14T05:50:42.140Z,2.20
2024-02-14T05:51:42.049Z,2.20
2024-02-14T05:52:42.052Z,2.23
2024-02-14T05:53:42.041Z,2.25
2024-02-14T05:54:42.020Z,2.25
2024-02-14T05:55:42.008Z,2.29
2024-02-14T05:56:42.031Z,2.29
2024-02-14T05:57:41.996Z,2.29
2024-02-14T05:58:41.967Z,2.27
2024-02-14T05:59:43.167Z,2.26
2024-02-14T06:00:42.195Z,2.27
2024-02-14T06:01:41.973Z,2.26
2024-02-14T06:02:42.039Z,2.27
2024-02-14T06:03:41.963Z,2.27
2024-02-14T06:04:41.943Z,2.27
2024-02-14T06:05:41.914Z,2.30
2024-02-14T06:06:41.923Z,2.32
2024-02-14T06:07:41.867Z,2.36
2024-02-14T06:08:41.924Z,2.36
2024-02-14T06:09:41.852Z,2.36
2024-02-14T06:10:41.874Z,2.38
2024-02-14T06:11:41.915Z,2.41
2024-02-14T06:12:41.842Z,2.40
2024-02-14T06:13:42.594Z,2.40
2024-02-14T06:14:41.857Z,2.40
2024-02-14T06:15:41.794Z,2.41
2024-02-14T06:16:41.797Z,2.44
2024-02-14T06:17:41.822Z,2.45
2024-02-14T06:18:41.924Z,2.50
2024-02-14T06:19:41.762Z,2.51
2024-02-14T06:20:41.848Z,2.55
2024-02-14T06:21:41.720Z,2.56
2024-02-14T06:22:47.655Z,2.58
2024-02-14T06:23:41.749Z,2.58
2024-02-14T06:24:41.718Z,2.59
2024-02-14T06:25:41.679Z,2.61
2024-02-14T06:26:41.718Z,2.62
2024-02-14T06:27:41.653Z,2.62
2024-02-14T06:28:41.650Z,2.65
2024-02-14T06:29:41.674Z,2.65
2024-02-14T06:30:41.642Z,2.66
2024-02-14T06:31:41.637Z,2.66
2024-02-14T06:32:41.884Z,2.66
2024-02-14T06:33:41.805Z,2.65
2024-02-14T06:34:41.731Z,2.65
2024-02-14T06:35:41.783Z,2.63
2024-02-14T06:36:41.687Z,2.62
2024-02-14T06:37:48.635Z,2.58
2024-02-14T06:38:41.578Z,2.58
2024-02-14T06:39:41.530Z,2.59
2024-02-14T06:40:41.547Z,2.59
2024-02-14T06:41:41.580Z,2.59
2024-02-14T06:42:41.499Z,2.55
2024-02-14T06:43:41.492Z,2.55
2024-02-14T06:44:41.488Z,2.55
2024-02-14T06:45:41.461Z,2.53
2024-02-14T06:46:41.467Z,2.56
2024-02-14T06:47:41.497Z,2.56
2024-02-14T06:48:41.566Z,2.58
2024-02-14T06:49:41.484Z,2.58
2024-02-14T06:50:41.491Z,2.61
2024-02-14T06:51:41.386Z,2.62
2024-02-14T06:52:41.387Z,2.62
2024-02-14T06:53:41.411Z,2.62
2024-02-14T06:54:41.361Z,2.63
2024-02-14T06:55:41.361Z,2.62
2024-02-14T06:56:41.420Z,2.63
2024-02-14T06:57:41.330Z,2.63
2024-02-14T06:58:41.320Z,2.62
2024-02-14T06:59:41.323Z,2.62
2024-02-14T07:00:41.420Z,2.62
2024-02-14T07:01:41.284Z,2.62
2024-02-14T07:02:41.372Z,2.62
2024-02-14T07:03:41.254Z,2.62
2024-02-14T07:04:41.385Z,2.63
2024-02-14T07:05:41.302Z,2.62
2024-02-14T07:06:41.291Z,2.61
2024-02-14T07:07:41.208Z,2.61
2024-02-14T07:08:41.245Z,2.61
2024-02-14T07:09:41.203Z,2.58
2024-02-14T07:10:41.192Z,2.58
2024-02-14T07:11:41.196Z,2.59
2024-02-14T07:12:41.186Z,2.58
2024-02-14T07:13:41.148Z,2.56
2024-02-14T07:14:41.156Z,2.58
2024-02-14T07:15:41.126Z,2.55
2024-02-14T07:16:41.124Z,2.56
2024-02-14T07:17:41.189Z,2.56
2024-02-14T07:18:41.284Z,2.56
2024-02-14T07:19:41.126Z,2.56
2024-02-14T07:20:41.108Z,2.58
2024-02-14T07:21:41.052Z,2.61
2024-02-14T07:22:41.079Z,2.62
2024-02-14T07:23:41.080Z,2.62
2024-02-14T07:24:41.090Z,2.59
2024-02-14T07:25:41.014Z,2.62
2024-02-14T07:26:41.037Z,2.62
2024-02-14T07:27:41.256Z,2.63
2024-02-14T07:28:40.980Z,2.61
2024-02-14T07:29:41.074Z,2.63
2024-02-14T07:30:41.092Z,2.63
2024-02-14T07:31:41.005Z,2.66
2024-02-14T07:32:41.085Z,2.68
2024-02-14T07:33:41.172Z,2.69
2024-02-14T07:34:40.980Z,2.71
2024-02-14T07:35:41.022Z,2.73
2024-02-14T07:36:40.893Z,2.76
2024-02-14T07:37:40.924Z,2.79
2024-02-14T07:38:40.889Z,2.81
2024-02-14T07:39:40.854Z,2.86
2024-02-14T07:40:40.876Z,2.87
2024-02-14T07:41:40.941Z,2.90
2024-02-14T07:42:40.839Z,2.94
2024-02-14T07:43:40.833Z,2.97
2024-02-14T07:44:40.828Z,2.98
2024-02-14T07:45:40.826Z,2.99
2024-02-14T07:46:40.807Z,2.99
2024-02-14T07:47:40.879Z,3.02
2024-02-14T07:48:40.855Z,3.04
2024-02-14T07:49:40.858Z,3.08
2024-02-14T07:50:40.751Z,3.12
2024-02-14T07:51:40.732Z,3.13
2024-02-14T07:52:40.741Z,3.16
2024-02-14T07:53:40.759Z,3.20
2024-02-14T07:54:40.695Z,3.20
2024-02-14T07:55:40.749Z,3.22
2024-02-14T07:56:40.726Z,3.28
2024-02-14T07:57:40.668Z,3.31
2024-02-14T07:58:40.702Z,3.33
2024-02-14T07:59:40.679Z,3.34
2024-02-14T08:00:40.664Z,3.35
2024-02-14T08:01:40.629Z,3.39
2024-02-14T08:02:40.647Z,3.44
2024-02-14T08:03:40.660Z,3.46
2024-02-14T08:04:40.598Z,3.52
2024-02-14T08:05:40.638Z,3.54
2024-02-14T08:06:40.597Z,3.56
2024-02-14T08:07:40.558Z,3.59
2024-02-14T08:08:40.590Z,3.62
2024-02-14T08:09:40.552Z,3.64
2024-02-14T08:10:40.530Z,3.67
2024-02-14T08:11:40.526Z,3.67
2024-02-14T08:12:40.498Z,3.82
2024-02-14T08:13:40.486Z,3.92
2024-02-14T08:14:40.560Z,3.92
2024-02-14T08:15:41.743Z,3.92
2024-02-14T08:16:40.793Z,4.02
2024-02-14T08:17:41.792Z,4.13
2024-02-14T08:18:40.577Z,4.13
2024-02-14T08:19:40.584Z,4.14
2024-02-14T08:20:40.424Z,4.16
2024-02-14T08:21:40.425Z,4.17
2024-02-14T08:22:40.393Z,4.21
2024-02-14T08:23:40.427Z,4.31
2024-02-14T08:24:40.374Z,4.46
2024-02-14T08:25:40.365Z,4.51
2024-02-14T08:26:40.356Z,4.49
2024-02-14T08:27:40.351Z,4.43
2024-02-14T08:28:40.324Z,4.43
2024-02-14T08:29:41.199Z,4.39
2024-02-14T08:30:40.317Z,4.39
2024-02-14T08:31:40.305Z,4.39
2024-02-14T08:32:40.424Z,4.44
2024-02-14T08:33:40.555Z,4.46
2024-02-14T08:34:40.413Z,4.44
2024-02-14T08:35:43.558Z,4.49
2024-02-14T08:36:40.306Z,4.59
2024-02-14T08:37:40.295Z,4.68
2024-02-14T08:38:40.295Z,4.75
2024-02-14T08:39:40.302Z,4.79
2024-02-14T08:40:40.295Z,4.87
2024-02-14T08:41:40.305Z,5.02
2024-02-14T08:42:40.546Z,5.08
2024-02-14T08:43:40.246Z,5.06
2024-02-14T08:44:40.238Z,5.04
2024-02-14T08:45:40.155Z,5.02
2024-02-14T08:46:40.347Z,5.05
2024-02-14T08:47:40.310Z,5.04
2024-02-14T08:48:40.272Z,5.05
2024-02-14T08:49:40.182Z,5.11
2024-02-14T08:50:40.551Z,5.14
2024-02-14T08:51:40.400Z,5.15
2024-02-14T08:52:40.143Z,5.20
2024-02-14T08:53:40.199Z,5.22
2024-02-14T08:54:40.988Z,5.22
2024-02-14T08:55:40.243Z,5.22
2024-02-14T08:56:40.139Z,5.24
2024-02-14T08:57:40.044Z,5.32
2024-02-14T08:58:40.071Z,5.35
2024-02-14T08:59:40.072Z,5.33
2024-02-14T09:00:40.107Z,5.37
2024-02-14T09:01:40.087Z,5.38
2024-02-14T09:02:40.038Z,5.47
2024-02-14T09:03:40.015Z,5.49
2024-02-14T09:04:40.016Z,5.55
2024-02-14T09:05:40.098Z,5.58
2024-02-14T09:06:40.094Z,5.59
2024-02-14T09:07:40.032Z,5.62
2024-02-14T09:08:40.010Z,5.60
2024-02-14T09:09:39.958Z,5.62
2024-02-14T09:10:39.914Z,5.60
2024-02-14T09:11:39.932Z,5.62
2024-02-14T09:12:39.841Z,5.65
2024-02-14T09:13:39.971Z,5.65
2024-02-14T09:14:39.933Z,5.65
2024-02-14T09:15:40.114Z,5.67
2024-02-14T09:16:39.838Z,5.70
2024-02-14T09:17:39.959Z,5.75
2024-02-14T09:18:40.467Z,5.78
2024-02-14T09:19:39.899Z,5.83
2024-02-14T09:20:40.074Z,5.81
2024-02-14T09:21:39.818Z,5.81
2024-02-14T09:22:39.795Z,5.81
2024-02-14T09:23:39.815Z,5.81
2024-02-14T09:24:39.824Z,5.85
2024-02-14T09:25:39.816Z,5.92
2024-02-14T09:26:39.757Z,5.98
2024-02-14T09:27:39.684Z,6.03
2024-02-14T09:28:39.701Z,6.08
2024-02-14T09:29:39.867Z,6.11
2024-02-14T09:30:39.931Z,6.14
2024-02-14T09:31:39.647Z,6.14
2024-02-14T09:32:39.755Z,6.16
2024-02-14T09:33:39.840Z,6.17
2024-02-14T09:34:39.862Z,6.19
2024-02-14T09:35:39.695Z,6.27
2024-02-14T09:36:39.616Z,6.36
2024-02-14T09:37:39.682Z,6.39
2024-02-14T09:38:39.687Z,6.42
2024-02-14T09:39:39.642Z,6.45
2024-02-14T09:40:39.582Z,6.45
2024-02-14T09:41:39.530Z,6.45
2024-02-14T09:42:39.568Z,6.45
2024-02-14T09:43:39.532Z,6.48
2024-02-14T09:44:39.636Z,6.51
2024-02-14T09:45:39.557Z,6.53
2024-02-14T09:46:39.550Z,6.53
2024-02-14T09:47:39.613Z,6.54
2024-02-14T09:48:39.936Z,6.55
2024-02-14T09:49:39.631Z,6.57
2024-02-14T09:50:39.562Z,6.57
2024-02-14T09:51:39.489Z,6.58
2024-02-14T09:52:39.489Z,6.64
2024-02-14T09:53:39.440Z,6.69
2024-02-14T09:54:39.377Z,6.72
2024-02-14T09:55:39.370Z,6.75
2024-02-14T09:56:39.400Z,6.78
2024-02-14T09:57:39.348Z,6.82
2024-02-14T09:58:39.322Z,6.83
2024-02-14T09:59:39.362Z,6.89
2024-02-14T10:00:39.343Z,6.90
2024-02-14T10:01:39.345Z,6.97
2024-02-14T10:02:39.361Z,7.00
2024-02-14T10:03:39.277Z,7.05
2024-02-14T10:04:39.273Z,7.09
2024-02-14T10:05:39.320Z,7.12
2024-02-14T10:06:39.366Z,7.19
2024-02-14T10:07:39.229Z,7.19
2024-02-14T10:08:42.586Z,7.26
2024-02-14T10:09:39.245Z,7.27
2024-02-14T10:10:39.214Z,7.34
2024-02-14T10:11:39.226Z,7.37
2024-02-14T10:12:39.186Z,7.42
2024-02-14T10:13:39.158Z,7.48
2024-02-14T10:14:39.189Z,7.51
2024-02-14T10:15:39.144Z,7.52
2024-02-14T10:16:39.160Z,7.60
2024-02-14T10:17:39.205Z,7.67
2024-02-14T10:18:39.206Z,7.71
2024-02-14T10:19:39.142Z,7.74
2024-02-14T10:20:39.151Z,7.81
2024-02-14T10:21:40.253Z,7.89
2024-02-14T10:22:39.082Z,7.95
2024-02-14T10:23:39.070Z,8.06
2024-02-14T10:24:39.027Z,8.12
2024-02-14T10:25:39.034Z,8.18
2024-02-14T10:26:39.028Z,8.27
2024-02-14T10:27:39.017Z,8.31
2024-02-14T10:28:43.683Z,8.34
2024-02-14T10:29:39.022Z,8.39
2024-02-14T10:30:38.979Z,8.40
2024-02-14T10:31:38.979Z,8.43
2024-02-14T10:32:39.159Z,8.43
2024-02-14T10:33:39.046Z,8.47
2024-02-14T10:34:39.111Z,8.46
2024-02-14T10:35:39.015Z,8.52
2024-02-14T10:36:38.977Z,8.55
2024-02-14T10:37:38.926Z,8.61
2024-02-14T10:38:38.918Z,8.61
2024-02-14T10:39:38.877Z,8.65
2024-02-14T10:40:38.876Z,8.68
2024-02-14T10:41:38.912Z,8.76
2024-02-14T10:42:38.852Z,8.80
2024-02-14T10:43:38.869Z,8.85
2024-02-14T10:44:38.851Z,8.89
2024-02-14T10:45:38.820Z,8.96
2024-02-14T10:46:38.838Z,9.00
2024-02-14T10:47:38.896Z,9.06
2024-02-14T10:48:38.890Z,9.10
2024-02-14T10:49:38.862Z,9.17
2024-02-14T10:50:38.804Z,9.22
2024-02-14T10:51:38.753Z,9.30
2024-02-14T10:52:38.725Z,9.32
2024-02-14T10:53:38.824Z,9.37
2024-02-14T10:54:38.709Z,9.42
2024-02-14T10:55:38.717Z,9.45
2024-02-14T10:56:38.707Z,9.52
2024-02-14T10:57:38.679Z,9.56
2024-02-14T10:58:38.709Z,9.62
2024-02-14T10:59:38.687Z,9.71
2024-02-14T11:00:38.705Z,9.78
2024-02-14T11:01:38.741Z,9.86
2024-02-14T11:02:38.683Z,9.93
2024-02-14T11:03:38.681Z,10.01
2024-02-14T11:04:38.654Z,10.09
2024-02-14T11:05:38.676Z,10.18
2024-02-14T11:06:38.648Z,10.29
2024-02-14T11:07:38.584Z,10.35
2024-02-14T11:08:38.587Z,10.38
2024-02-14T11:09:40.001Z,10.44
2024-02-14T11:10:38.735Z,10.47
2024-02-14T11:11:38.545Z,10.51
2024-02-14T11:12:38.505Z,10.57
2024-02-14T11:13:38.526Z,10.60
2024-02-14T11:14:38.501Z,10.62
2024-02-14T11:15:38.470Z,10.60
2024-02-14T11:16:38.467Z,10.65
2024-02-14T11:17:38.596Z,10.68
2024-02-14T11:18:38.680Z,10.70
2024-02-14T11:19:38.909Z,10.72
2024-02-14T11:20:38.583Z,10.72
2024-02-14T11:21:38.472Z,10.72
2024-02-14T11:22:38.401Z,10.78
2024-02-14T11:23:38.417Z,10.84
2024-02-14T11:24:38.386Z,10.88
2024-02-14T11:25:38.360Z,10.95
2024-02-14T11:26:38.416Z,11.01
2024-02-14T11:27:38.514Z,11.06
2024-02-14T11:28:38.348Z,11.05
2024-02-14T11:29:38.350Z,11.06
2024-02-14T11:30:38.320Z,11.11
2024-02-14T11:31:38.298Z,11.08
2024-02-14T11:32:38.332Z,11.13
2024-02-14T11:33:38.596Z,11.19
2024-02-14T11:34:39.121Z,11.21
2024-02-14T11:35:38.263Z,11.30
2024-02-14T11:36:38.266Z,11.36
2024-02-14T11:37:38.227Z,11.42
2024-02-14T11:38:38.430Z,11.44
2024-02-14T11:39:38.250Z,11.46
2024-02-14T11:40:38.349Z,11.51
2024-02-14T11:41:38.306Z,11.56
2024-02-14T11:42:38.301Z,11.63
2024-02-14T11:43:38.159Z,11.69
2024-02-14T11:44:38.201Z,11.74
2024-02-14T11:45:38.135Z,11.78
2024-02-14T11:46:38.132Z,11.79
2024-02-14T11:47:38.173Z,11.78
2024-02-14T11:48:41.085Z,11.81
2024-02-14T11:49:38.145Z,11.82
2024-02-14T11:50:38.120Z,11.85
2024-02-14T11:51:38.083Z,11.93
2024-02-14T11:52:38.059Z,11.94
2024-02-14T11:53:38.118Z,11.97
2024-02-14T11:54:38.049Z,12.00
2024-02-14T11:55:38.043Z,12.05
2024-02-14T11:56:38.200Z,12.11
2024-02-14T11:57:38.013Z,12.05
2024-02-14T11:58:38.032Z,12.05
2024-02-14T11:59:38.009Z,12.12
2024-02-14T12:00:38.013Z,12.05
2024-02-14T12:01:37.962Z,12.03
2024-02-14T12:02:37.988Z,12.07
2024-02-14T12:03:37.968Z,12.12
2024-02-14T12:04:37.950Z,12.16
2024-02-14T12:05:38.068Z,12.22
2024-02-14T12:06:38.466Z,12.23
2024-02-14T12:07:37.913Z,12.29
2024-02-14T12:08:37.933Z,12.30
2024-02-14T12:09:37.898Z,12.26
2024-02-14T12:10:37.869Z,12.23
2024-02-14T12:11:37.884Z,12.25
2024-02-14T12:12:37.858Z,12.25
2024-02-14T12:13:37.817Z,12.25
2024-02-14T12:14:37.928Z,12.26
2024-02-14T12:15:37.813Z,12.25
2024-02-14T12:16:37.798Z,12.25
2024-02-14T12:17:37.827Z,12.26
2024-02-14T12:18:37.896Z,12.26
2024-02-14T12:19:37.834Z,12.22
2024-02-14T12:20:37.807Z,12.19
2024-02-14T12:21:37.765Z,12.18
2024-02-14T12:22:37.846Z,12.19
2024-02-14T12:23:37.741Z,12.18
2024-02-14T12:24:38.888Z,12.22
2024-02-14T12:25:37.726Z,12.25
2024-02-14T12:26:37.847Z,12.23
2024-02-14T12:27:37.664Z,12.18
2024-02-14T12:28:37.660Z,12.12
2024-02-14T12:29:37.676Z,12.08
2024-02-14T12:30:37.641Z,12.01
2024-02-14T12:31:37.686Z,12.05
2024-02-14T12:32:37.722Z,12.08
2024-02-14T12:33:37.742Z,12.11
2024-02-14T12:34:37.825Z,12.12
2024-02-14T12:35:37.607Z,12.16
2024-02-14T12:36:37.565Z,12.23
2024-02-14T12:37:37.556Z,12.29
2024-02-14T12:38:37.592Z,12.31
2024-02-14T12:39:40.112Z,12.30
2024-02-14T12:40:37.557Z,12.30
2024-02-14T12:41:37.624Z,12.23
2024-02-14T12:42:37.560Z,12.19
2024-02-14T12:43:37.536Z,12.25
2024-02-14T12:44:37.570Z,12.29
2024-02-14T12:45:37.460Z,12.26
2024-02-14T12:46:37.455Z,12.30
2024-02-14T12:47:37.596Z,12.30
2024-02-14T12:48:37.591Z,12.31
2024-02-14T12:49:37.519Z,12.33
2024-02-14T12:50:37.503Z,12.29
2024-02-14T12:51:37.627Z,12.18
2024-02-14T12:52:37.426Z,12.19
2024-02-14T12:53:37.408Z,12.23
2024-02-14T12:54:37.434Z,12.29
2024-02-14T12:55:37.428Z,12.33
2024-02-14T12:56:37.435Z,12.31
2024-02-14T12:57:37.347Z,12.34
2024-02-14T12:58:37.329Z,12.38
2024-02-14T12:59:37.343Z,12.46
2024-02-14T13:00:37.378Z,12.51
2024-02-14T13:01:37.389Z,12.55
2024-02-14T13:02:37.369Z,12.61
2024-02-14T13:03:37.476Z,12.69
2024-02-14T13:04:37.271Z,12.74
2024-02-14T13:05:37.279Z,12.85
2024-02-14T13:06:37.265Z,12.98
2024-02-14T13:07:37.242Z,12.99
2024-02-14T13:08:37.259Z,13.06
2024-02-14T13:09:37.220Z,13.16
2024-02-14T13:10:37.200Z,13.25
2024-02-14T13:11:37.200Z,13.32
2024-02-14T13:12:37.174Z,13.43
2024-02-14T13:13:37.152Z,13.57
2024-02-14T13:14:37.176Z,13.72